createdAt,value
2017-07-19T00:00:56.230Z,14.33
2017-07-19T00:01:56.155Z,14.40
2017-07-19T00:02:56.169Z,14.39
2017-07-19T00:03:56.187Z,14.38
2017-07-19T00:04:56.229Z,14.35
2017-07-19T00:05:56.166Z,14.32
2017-07-19T00:06:56.198Z,14.29
2017-07-19T00:07:56.143Z,14.25
2017-07-19T00:08:56.199Z,14.22
2017-07-19T00:09:56.143Z,14.21
2017-07-19T00:10:56.130Z,14.20
2017-07-19T00:11:56.168Z,14.17
2017-07-19T00:12:56.201Z,14.17
2017-07-19T00:13:56.209Z,14.14
2017-07-19T00:14:56.233Z,14.13
2017-07-19T00:15:56.178Z,14.14
2017-07-19T00:16:56.176Z,14.14
2017-07-19T00:17:56.189Z,14.13
2017-07-19T00:18:56.145Z,14.14
2017-07-19T00:19:56.175Z,14.17
2017-07-19T00:20:56.145Z,14.17
2017-07-19T00:21:56.154Z,14.13
2017-07-19T00:22:56.197Z,14.10
2017-07-19T00:23:56.150Z,14.10
2017-07-19T00:24:56.180Z,14.07
2017-07-19T00:25:56.237Z,14.07
2017-07-19T00:26:56.216Z,14.06
2017-07-19T00:27:56.184Z,14.06
2017-07-19T00:28:56.237Z,14.03
2017-07-19T00:29:56.155Z,14.02
2017-07-19T00:30:56.214Z,13.99
2017-07-19T00:31:56.184Z,13.96
2017-07-19T00:32:56.200Z,13.93
2017-07-19T00:33:56.237Z,13.91
2017-07-19T00:34:56.183Z,13.93
2017-07-19T00:35:56.189Z,13.91
2017-07-19T00:36:56.205Z,13.88
2017-07-19T00:37:56.207Z,13.92
2017-07-19T00:38:56.203Z,13.91
2017-07-19T00:39:56.142Z,13.89
2017-07-19T00:40:56.149Z,13.91
2017-07-19T00:41:56.147Z,13.96
2017-07-19T00:42:56.209Z,13.95
2017-07-19T00:43:56.148Z,13.96
2017-07-19T00:44:56.151Z,13.95
2017-07-19T00:45:56.179Z,13.95
2017-07-19T00:46:56.180Z,13.95
2017-07-19T00:47:56.188Z,13.99
2017-07-19T00:48:56.155Z,13.95
2017-07-19T00:49:56.210Z,13.93
2017-07-19T00:50:56.209Z,13.92
2017-07-19T00:51:56.153Z,13.95
2017-07-19T00:52:56.220Z,13.93
2017-07-19T00:53:56.208Z,13.92
2017-07-19T00:54:56.156Z,13.93
2017-07-19T00:55:56.216Z,13.95
2017-07-19T00:56:56.216Z,13.93
2017-07-19T00:57:56.252Z,13.91
2017-07-19T00:58:56.176Z,13.89
2017-07-19T00:59:56.229Z,13.95
2017-07-19T01:00:56.202Z,13.95
2017-07-19T01:01:56.164Z,13.98
2017-07-19T01:02:56.169Z,13.99
2017-07-19T01:03:56.203Z,13.99
2017-07-19T01:04:56.265Z,14.00
2017-07-19T01:05:56.257Z,14.02
2017-07-19T01:06:56.167Z,14.10
2017-07-19T01:07:56.222Z,14.09
2017-07-19T01:08:56.204Z,14.10
2017-07-19T01:09:56.202Z,14.07
2017-07-19T01:10:56.208Z,14.04
2017-07-19T01:11:56.265Z,14.07
2017-07-19T01:12:56.184Z,14.13
2017-07-19T01:13:56.238Z,14.14
2017-07-19T01:14:56.238Z,14.13
2017-07-19T01:15:56.239Z,14.11
2017-07-19T01:16:56.205Z,14.15
2017-07-19T01:17:56.184Z,14.24
2017-07-19T01:18:56.174Z,14.20
2017-07-19T01:19:56.207Z,14.20
2017-07-19T01:20:56.239Z,14.21
2017-07-19T01:21:56.246Z,14.20
2017-07-19T01:22:56.203Z,14.22
2017-07-19T01:23:56.176Z,14.22
2017-07-19T01:24:56.211Z,14.22
2017-07-19T01:25:56.207Z,14.22
2017-07-19T01:26:56.233Z,14.20
2017-07-19T01:27:56.245Z,14.20
2017-07-19T01:28:56.241Z,14.21
2017-07-19T01:29:56.280Z,14.21
2017-07-19T01:30:56.215Z,14.20
2017-07-19T01:31:56.191Z,14.18
2017-07-19T01:32:56.242Z,14.18
2017-07-19T01:33:56.249Z,14.18
2017-07-19T01:34:56.254Z,14.17
2017-07-19T01:35:56.193Z,14.14
2017-07-19T01:36:56.208Z,14.13
2017-07-19T01:37:56.204Z,14.07
2017-07-19T01:38:56.183Z,14.06
2017-07-19T01:39:56.208Z,14.07
2017-07-19T01:40:56.212Z,14.00
2017-07-19T01:41:56.206Z,13.99
2017-07-19T01:42:56.209Z,13.95
2017-07-19T01:43:56.188Z,13.92
2017-07-19T01:44:56.245Z,13.89
2017-07-19T01:45:56.244Z,13.88
2017-07-19T01:46:56.185Z,13.83
2017-07-19T01:47:56.221Z,13.84
2017-07-19T01:48:56.261Z,13.84
2017-07-19T01:49:56.228Z,13.88
2017-07-19T01:50:56.320Z,13.88
2017-07-19T01:51:56.191Z,13.89
2017-07-19T01:52:56.249Z,13.86
2017-07-19T01:53:56.228Z,13.88
2017-07-19T01:54:56.291Z,13.88
2017-07-19T01:55:56.249Z,13.88
2017-07-19T01:56:56.229Z,13.84
2017-07-19T01:57:56.282Z,13.84
2017-07-19T01:58:56.220Z,13.83
2017-07-19T01:59:56.300Z,13.83
2017-07-19T02:00:56.292Z,13.84
2017-07-19T02:01:56.289Z,13.84
2017-07-19T02:02:56.253Z,13.83
2017-07-19T02:03:56.256Z,13.84
2017-07-19T02:04:56.268Z,13.81
2017-07-19T02:05:56.236Z,13.81
2017-07-19T02:06:56.226Z,13.84
2017-07-19T02:07:56.240Z,13.84
2017-07-19T02:08:56.212Z,13.81
2017-07-19T02:09:56.233Z,13.80
2017-07-19T02:10:56.303Z,13.80
2017-07-19T02:11:56.260Z,13.79
2017-07-19T02:12:56.246Z,13.77
2017-07-19T02:13:56.269Z,13.76
2017-07-19T02:14:56.205Z,13.77
2017-07-19T02:15:56.302Z,13.77
2017-07-19T02:16:56.272Z,13.76
2017-07-19T02:17:56.219Z,13.76
2017-07-19T02:18:56.242Z,13.76
2017-07-19T02:19:56.213Z,13.77
2017-07-19T02:20:56.208Z,13.76
2017-07-19T02:21:56.279Z,13.76
2017-07-19T02:22:56.236Z,13.75
2017-07-19T02:23:56.306Z,13.73
2017-07-19T02:24:56.240Z,13.75
2017-07-19T02:25:56.218Z,13.76
2017-07-19T02:26:56.307Z,13.76
2017-07-19T02:27:56.207Z,13.76
2017-07-19T02:28:56.238Z,13.75
2017-07-19T02:29:56.269Z,13.80
2017-07-19T02:30:56.208Z,13.79
2017-07-19T02:31:56.241Z,13.79
2017-07-19T02:32:56.211Z,13.76
2017-07-19T02:33:56.241Z,13.76
2017-07-19T02:34:56.211Z,13.75
2017-07-19T02:35:56.276Z,13.72
2017-07-19T02:36:56.210Z,13.73
2017-07-19T02:37:56.242Z,13.69
2017-07-19T02:38:56.237Z,13.69
2017-07-19T02:39:56.273Z,13.68
2017-07-19T02:40:56.210Z,13.64
2017-07-19T02:41:56.263Z,13.61
2017-07-19T02:42:56.217Z,13.61
2017-07-19T02:43:56.278Z,13.59
2017-07-19T02:44:56.373Z,13.54
2017-07-19T02:45:56.298Z,13.53
2017-07-19T02:46:56.217Z,13.54
2017-07-19T02:47:56.232Z,13.59
2017-07-19T02:48:56.229Z,13.61
2017-07-19T02:49:56.234Z,13.57
2017-07-19T02:50:56.264Z,13.62
2017-07-19T02:51:56.281Z,13.62
2017-07-19T02:52:56.258Z,13.64
2017-07-19T02:53:56.241Z,13.61
2017-07-19T02:54:56.289Z,13.59
2017-07-19T02:55:56.258Z,13.56
2017-07-19T02:56:56.233Z,13.53
2017-07-19T02:57:56.232Z,13.51
2017-07-19T02:58:56.335Z,13.47
2017-07-19T02:59:56.334Z,13.45
2017-07-19T03:00:56.238Z,13.43
2017-07-19T03:01:56.267Z,13.42
2017-07-19T03:02:56.330Z,13.40
2017-07-19T03:03:56.304Z,13.36
2017-07-19T03:04:56.290Z,13.36
2017-07-19T03:05:56.261Z,13.36
2017-07-19T03:06:56.337Z,13.34
2017-07-19T03:07:56.267Z,13.32
2017-07-19T03:08:56.276Z,13.29
2017-07-19T03:09:56.291Z,13.29
2017-07-19T03:10:56.307Z,13.28
2017-07-19T03:11:56.312Z,13.28
2017-07-19T03:12:56.293Z,13.27
2017-07-19T03:13:56.296Z,13.32
2017-07-19T03:14:56.268Z,13.34
2017-07-19T03:15:56.271Z,13.36
2017-07-19T03:16:56.245Z,13.35
2017-07-19T03:17:56.265Z,13.36
2017-07-19T03:18:56.178Z,13.35
2017-07-19T03:19:56.255Z,13.35
2017-07-19T03:20:56.188Z,13.38
2017-07-19T03:21:56.258Z,13.39
2017-07-19T03:22:56.257Z,13.42
2017-07-19T03:23:56.261Z,13.43
2017-07-19T03:24:56.256Z,13.43
2017-07-19T03:25:56.229Z,13.39
2017-07-19T03:26:56.243Z,13.38
2017-07-19T03:27:56.339Z,13.35
2017-07-19T03:28:56.251Z,13.34
2017-07-19T03:29:56.259Z,13.34
2017-07-19T03:30:56.340Z,13.31
2017-07-19T03:31:56.284Z,13.31
2017-07-19T03:32:56.289Z,13.31
2017-07-19T03:33:56.289Z,13.31
2017-07-19T03:34:56.314Z,13.32
2017-07-19T03:35:56.251Z,13.32
2017-07-19T03:36:56.284Z,13.35
2017-07-19T03:37:56.256Z,13.36
2017-07-19T03:38:56.238Z,13.35
2017-07-19T03:39:56.239Z,13.36
2017-07-19T03:40:56.255Z,13.36
2017-07-19T03:41:56.307Z,13.38
2017-07-19T03:42:56.272Z,13.38
2017-07-19T03:43:56.269Z,13.36
2017-07-19T03:44:56.249Z,13.36
2017-07-19T03:45:56.252Z,13.38
2017-07-19T03:46:56.268Z,13.38
2017-07-19T03:47:56.310Z,13.39
2017-07-19T03:48:56.316Z,13.40
2017-07-19T03:49:56.292Z,13.42
2017-07-19T03:50:56.299Z,13.45
2017-07-19T03:51:56.290Z,13.43
2017-07-19T03:52:56.266Z,13.43
2017-07-19T03:53:56.322Z,13.46
2017-07-19T03:54:56.311Z,13.46
2017-07-19T03:55:56.346Z,13.47
2017-07-19T03:56:56.276Z,13.49
2017-07-19T03:57:56.263Z,13.47
2017-07-19T03:58:56.293Z,13.49
2017-07-19T03:59:56.268Z,13.49
2017-07-19T04:00:56.315Z,13.50
2017-07-19T04:01:56.293Z,13.64
2017-07-19T04:02:56.357Z,13.66
2017-07-19T04:03:56.263Z,13.66
2017-07-19T04:04:56.329Z,13.68
2017-07-19T04:05:56.269Z,13.69
2017-07-19T04:06:56.365Z,13.70
2017-07-19T04:07:56.291Z,13.76
2017-07-19T04:08:56.283Z,13.77
2017-07-19T04:09:56.294Z,13.77
2017-07-19T04:10:56.300Z,13.81
2017-07-19T04:11:56.295Z,13.84
2017-07-19T04:12:56.243Z,13.86
2017-07-19T04:13:56.284Z,13.89
2017-07-19T04:14:56.312Z,13.91
2017-07-19T04:15:56.245Z,13.93
2017-07-19T04:16:56.224Z,14.03
2017-07-19T04:17:56.301Z,14.04
2017-07-19T04:18:56.299Z,14.09
2017-07-19T04:19:56.354Z,14.11
2017-07-19T04:20:56.315Z,14.14
2017-07-19T04:21:56.340Z,14.20
2017-07-19T04:22:56.336Z,14.22
2017-07-19T04:23:56.307Z,14.28
2017-07-19T04:24:56.310Z,14.32
2017-07-19T04:25:56.354Z,14.36
2017-07-19T04:26:56.342Z,14.40
2017-07-19T04:27:56.374Z,14.44
2017-07-19T04:28:56.310Z,14.47
2017-07-19T04:29:56.336Z,14.51
2017-07-19T04:30:56.286Z,14.55
2017-07-19T04:31:56.355Z,14.58
2017-07-19T04:32:56.301Z,14.62
2017-07-19T04:33:56.379Z,14.65
2017-07-19T04:34:56.351Z,14.66
2017-07-19T04:35:56.315Z,14.71
2017-07-19T04:36:56.344Z,14.73
2017-07-19T04:37:56.375Z,14.76
2017-07-19T04:38:56.352Z,14.82
2017-07-19T04:39:56.319Z,14.86
2017-07-19T04:40:56.316Z,14.86
2017-07-19T04:41:56.361Z,14.92
2017-07-19T04:42:56.319Z,14.96
2017-07-19T04:43:56.377Z,15.00
2017-07-19T04:44:56.321Z,15.08
2017-07-19T04:45:56.384Z,15.14
2017-07-19T04:46:56.294Z,15.24
2017-07-19T04:47:56.317Z,15.29
2017-07-19T04:48:56.291Z,15.33
2017-07-19T04:49:56.317Z,15.39
2017-07-19T04:50:56.378Z,15.44
2017-07-19T04:51:56.331Z,15.50
2017-07-19T04:52:56.364Z,15.57
2017-07-19T04:53:56.368Z,15.64
2017-07-19T04:54:56.301Z,15.76
2017-07-19T04:55:56.352Z,15.91
2017-07-19T04:56:56.393Z,16.00
2017-07-19T04:57:56.298Z,16.14
2017-07-19T04:58:56.371Z,16.25
2017-07-19T04:59:56.318Z,16.36
2017-07-19T05:00:56.397Z,16.43
2017-07-19T05:01:56.299Z,16.62
2017-07-19T05:02:56.396Z,16.74
2017-07-19T05:03:56.336Z,16.77
2017-07-19T05:04:56.393Z,16.85
2017-07-19T05:05:56.305Z,16.88
2017-07-19T05:06:56.310Z,16.91
2017-07-19T05:07:56.306Z,16.97
2017-07-19T05:08:56.304Z,17.02
2017-07-19T05:09:56.336Z,17.18
2017-07-19T05:10:56.313Z,17.35
2017-07-19T05:11:56.345Z,17.50
2017-07-19T05:12:56.380Z,17.60
2017-07-19T05:13:56.403Z,17.65
2017-07-19T05:14:56.398Z,17.73
2017-07-19T05:15:56.313Z,17.79
2017-07-19T05:16:56.338Z,17.94
2017-07-19T05:17:56.367Z,17.98
2017-07-19T05:18:56.326Z,18.00
2017-07-19T05:19:56.301Z,18.10
2017-07-19T05:20:56.363Z,18.24
2017-07-19T05:21:56.298Z,18.36
2017-07-19T05:22:56.332Z,18.48
2017-07-19T05:23:56.300Z,18.55
2017-07-19T05:24:56.335Z,18.65
2017-07-19T05:25:56.364Z,18.70
2017-07-19T05:26:56.371Z,18.76
2017-07-19T05:27:56.353Z,18.80
2017-07-19T05:28:56.336Z,18.91
2017-07-19T05:29:56.325Z,18.98
2017-07-19T05:30:57.431Z,19.02
2017-07-19T05:31:56.342Z,19.08
2017-07-19T05:32:56.342Z,19.15
2017-07-19T05:33:56.382Z,19.16
2017-07-19T05:34:56.318Z,19.24
2017-07-19T05:35:56.384Z,19.29
2017-07-19T05:36:56.286Z,19.32
2017-07-19T05:37:56.387Z,19.40
2017-07-19T05:38:56.340Z,19.47
2017-07-19T05:39:56.320Z,19.53
2017-07-19T05:40:56.289Z,19.57
2017-07-19T05:41:56.391Z,19.58
2017-07-19T05:42:56.343Z,19.64
2017-07-19T05:43:56.328Z,19.66
2017-07-19T05:44:56.342Z,19.70
2017-07-19T05:45:56.347Z,19.74
2017-07-19T05:46:56.275Z,19.81
2017-07-19T05:47:56.346Z,19.85
2017-07-19T05:48:56.518Z,19.91
2017-07-19T05:49:56.393Z,19.94
2017-07-19T05:50:56.332Z,19.96
2017-07-19T05:51:56.400Z,20.02
2017-07-19T05:52:56.334Z,20.07
2017-07-19T05:53:56.421Z,20.17
2017-07-19T05:54:56.354Z,20.25
2017-07-19T05:55:56.393Z,20.36
2017-07-19T05:56:56.337Z,20.43
2017-07-19T05:57:56.418Z,20.54
2017-07-19T05:58:56.424Z,20.69
2017-07-19T05:59:56.371Z,20.84
2017-07-19T06:00:56.336Z,20.94
2017-07-19T06:01:56.361Z,21.08
2017-07-19T06:02:56.364Z,21.13
2017-07-19T06:03:56.335Z,21.18
2017-07-19T06:04:56.337Z,21.17
2017-07-19T06:05:56.335Z,21.16
2017-07-19T06:06:56.337Z,21.22
2017-07-19T06:07:56.390Z,21.18
2017-07-19T06:08:56.396Z,21.27
2017-07-19T06:09:56.360Z,21.39
2017-07-19T06:10:56.359Z,21.40
2017-07-19T06:11:56.470Z,21.46
2017-07-19T06:12:56.391Z,21.46
2017-07-19T06:13:56.363Z,21.47
2017-07-19T06:14:56.387Z,21.43
2017-07-19T06:15:56.363Z,21.43
2017-07-19T06:16:56.332Z,21.49
2017-07-19T06:17:56.359Z,21.61
2017-07-19T06:18:56.345Z,21.64
2017-07-19T06:19:56.369Z,21.72
2017-07-19T06:20:56.436Z,21.78
2017-07-19T06:21:56.377Z,21.86
2017-07-19T06:22:56.440Z,21.96
2017-07-19T06:23:56.386Z,22.01
2017-07-19T06:24:56.419Z,21.97
2017-07-19T06:25:56.346Z,22.00
2017-07-19T06:26:56.366Z,21.94
2017-07-19T06:27:56.349Z,22.00
2017-07-19T06:28:56.333Z,22.04
2017-07-19T06:29:56.372Z,22.01
2017-07-19T06:30:56.377Z,22.06
2017-07-19T06:31:56.345Z,22.13
2017-07-19T06:32:56.376Z,22.19
2017-07-19T06:33:56.373Z,22.28
2017-07-19T06:34:56.404Z,22.38
2017-07-19T06:35:56.407Z,22.46
2017-07-19T06:36:56.417Z,22.46
2017-07-19T06:37:56.375Z,22.52
2017-07-19T06:38:56.355Z,22.52
2017-07-19T06:39:56.353Z,22.50
2017-07-19T06:40:56.375Z,22.46
2017-07-19T06:41:56.393Z,22.50
2017-07-19T06:42:56.354Z,22.32
2017-07-19T06:43:56.413Z,22.23
2017-07-19T06:44:56.434Z,22.23
2017-07-19T06:45:56.421Z,22.21
2017-07-19T06:46:56.418Z,22.27
2017-07-19T06:47:56.359Z,22.35
2017-07-19T06:48:56.380Z,22.46
2017-07-19T06:49:56.424Z,22.64
2017-07-19T06:50:56.425Z,22.72
2017-07-19T06:51:56.396Z,22.82
2017-07-19T06:52:56.357Z,22.87
2017-07-19T06:53:56.417Z,23.02
2017-07-19T06:54:56.363Z,23.17
2017-07-19T06:55:56.400Z,23.23
2017-07-19T06:56:56.419Z,23.31
2017-07-19T06:57:56.382Z,23.31
2017-07-19T06:58:56.344Z,23.39
2017-07-19T06:59:56.383Z,23.39
2017-07-19T07:00:56.380Z,23.30
2017-07-19T07:01:56.380Z,23.39
2017-07-19T07:02:56.360Z,23.31
2017-07-19T07:03:56.345Z,23.35
2017-07-19T07:04:56.392Z,23.37
2017-07-19T07:05:56.368Z,23.30
2017-07-19T07:06:56.382Z,23.28
2017-07-19T07:07:56.379Z,23.23
2017-07-19T07:08:56.458Z,23.19
2017-07-19T07:09:56.465Z,23.23
2017-07-19T07:10:56.395Z,23.34
2017-07-19T07:11:56.429Z,23.42
2017-07-19T07:12:56.374Z,23.51
2017-07-19T07:13:56.434Z,23.61
2017-07-19T07:14:56.404Z,23.71
2017-07-19T07:16:56.446Z,23.87
2017-07-19T07:17:56.400Z,23.90
2017-07-19T07:18:56.408Z,24.02
2017-07-19T07:19:56.397Z,24.00
2017-07-19T07:20:56.399Z,24.04
2017-07-19T07:21:56.383Z,24.19
2017-07-19T07:22:56.469Z,24.12
2017-07-19T07:23:56.452Z,24.08
2017-07-19T07:24:56.378Z,23.98
2017-07-19T07:25:56.380Z,23.93
2017-07-19T07:26:56.468Z,24.04
2017-07-19T07:27:56.398Z,24.11
2017-07-19T07:28:56.412Z,24.15
2017-07-19T07:29:56.441Z,24.15
2017-07-19T07:30:56.469Z,24.33
2017-07-19T07:31:56.437Z,24.37
2017-07-19T07:32:56.415Z,24.49
2017-07-19T07:33:56.422Z,24.48
2017-07-19T07:34:56.458Z,24.51
2017-07-19T07:35:56.415Z,24.57
2017-07-19T07:36:56.409Z,24.49
2017-07-19T07:37:56.442Z,24.60
2017-07-19T07:38:56.441Z,24.66
2017-07-19T07:39:56.412Z,24.61
2017-07-19T07:40:56.442Z,24.72
2017-07-19T07:41:56.446Z,24.72
2017-07-19T07:42:56.412Z,24.86
2017-07-19T07:43:56.440Z,24.90
2017-07-19T07:44:56.504Z,25.01
2017-07-19T07:45:56.415Z,25.11
2017-07-19T07:46:56.385Z,25.27
2017-07-19T07:47:56.419Z,25.33
2017-07-19T07:48:56.412Z,25.31
2017-07-19T07:49:56.497Z,25.34
2017-07-19T07:50:56.385Z,25.23
2017-07-19T07:51:56.447Z,25.23
2017-07-19T07:52:56.419Z,25.38
2017-07-19T07:53:56.451Z,25.33
2017-07-19T07:54:56.384Z,25.29
2017-07-19T07:55:56.422Z,25.30
2017-07-19T07:56:56.388Z,25.46
2017-07-19T07:57:56.393Z,25.63
2017-07-19T07:58:56.451Z,25.68
2017-07-19T07:59:56.419Z,25.64
2017-07-19T08:00:56.386Z,25.74
2017-07-19T08:01:56.391Z,25.71
2017-07-19T08:02:56.425Z,25.89
2017-07-19T08:03:56.453Z,25.96
2017-07-19T08:04:56.505Z,26.15
2017-07-19T08:05:56.390Z,26.25
2017-07-19T08:06:56.424Z,26.10
2017-07-19T08:07:56.390Z,25.82
2017-07-19T08:08:56.423Z,25.78
2017-07-19T08:09:56.540Z,25.84
2017-07-19T08:10:56.461Z,25.95
2017-07-19T08:11:56.431Z,25.97
2017-07-19T08:12:56.465Z,25.93
2017-07-19T08:13:56.422Z,25.86
2017-07-19T08:14:56.457Z,25.92
2017-07-19T08:15:56.462Z,25.91
2017-07-19T08:16:56.398Z,26.03
2017-07-19T08:17:56.399Z,26.02
2017-07-19T08:18:56.444Z,26.02
2017-07-19T08:19:56.483Z,26.04
2017-07-19T08:20:56.465Z,26.22
2017-07-19T08:21:56.416Z,26.13
2017-07-19T08:22:56.412Z,26.13
2017-07-19T08:23:56.511Z,26.18
2017-07-19T08:24:56.416Z,26.26
2017-07-19T08:25:56.490Z,26.24
2017-07-19T08:26:56.478Z,26.26
2017-07-19T08:27:56.500Z,26.37
2017-07-19T08:28:56.476Z,26.51
2017-07-19T08:29:56.511Z,26.47
2017-07-19T08:30:56.448Z,26.62
2017-07-19T08:31:56.475Z,26.71
2017-07-19T08:32:56.452Z,26.88
2017-07-19T08:33:56.418Z,26.89
2017-07-19T08:34:56.519Z,26.93
2017-07-19T08:35:56.488Z,27.07
2017-07-19T08:37:56.452Z,27.18
2017-07-19T08:39:56.517Z,27.33
2017-07-19T08:40:56.492Z,27.23
2017-07-19T08:41:56.420Z,26.92
2017-07-19T08:42:56.449Z,26.84
2017-07-19T08:43:56.452Z,26.85
2017-07-19T08:44:56.424Z,27.03
2017-07-19T08:45:56.514Z,27.22
2017-07-19T08:46:56.428Z,27.10
2017-07-19T08:47:56.467Z,27.14
2017-07-19T08:48:56.447Z,27.21
2017-07-19T08:49:56.476Z,27.22
2017-07-19T08:50:56.430Z,27.29
2017-07-19T08:51:56.415Z,27.21
2017-07-19T08:52:56.436Z,27.29
2017-07-19T08:53:56.381Z,27.33
2017-07-19T08:54:56.453Z,27.30
2017-07-19T08:55:56.413Z,27.41
2017-07-19T08:56:56.430Z,27.57
2017-07-19T08:57:56.418Z,27.81
2017-07-19T08:58:56.490Z,27.93
2017-07-19T08:59:56.524Z,27.99
2017-07-19T09:00:56.472Z,27.88
2017-07-19T09:01:56.476Z,27.99
2017-07-19T09:02:56.494Z,27.93
2017-07-19T09:03:56.473Z,27.98
2017-07-19T09:04:56.498Z,27.99
2017-07-19T09:05:56.458Z,28.04
2017-07-19T09:06:56.444Z,27.99
2017-07-19T09:07:56.440Z,28.11
2017-07-19T09:08:56.440Z,28.24
2017-07-19T09:09:56.438Z,28.13
2017-07-19T09:10:56.465Z,28.14
2017-07-19T09:11:56.443Z,28.31
2017-07-19T09:12:56.497Z,28.35
2017-07-19T09:13:56.507Z,28.43
2017-07-19T09:14:56.469Z,28.40
2017-07-19T09:15:56.474Z,28.37
2017-07-19T09:16:56.503Z,28.37
2017-07-19T09:17:56.463Z,28.43
2017-07-19T09:18:56.463Z,28.42
2017-07-19T09:19:56.504Z,28.44
2017-07-19T09:20:56.431Z,28.53
2017-07-19T09:21:56.439Z,28.64
2017-07-19T09:22:56.469Z,28.75
2017-07-19T09:23:56.435Z,28.94
2017-07-19T09:24:56.503Z,28.95
2017-07-19T09:25:56.499Z,28.90
2017-07-19T09:26:56.503Z,28.80
2017-07-19T09:27:56.504Z,28.87
2017-07-19T09:28:56.454Z,28.77
2017-07-19T09:29:56.460Z,28.97
2017-07-19T09:30:56.463Z,29.08
2017-07-19T09:31:56.458Z,29.35
2017-07-19T09:32:56.463Z,29.46
2017-07-19T09:33:56.388Z,29.55
2017-07-19T09:34:56.346Z,29.62
2017-07-19T09:35:56.498Z,29.75
2017-07-19T09:36:56.398Z,29.76
2017-07-19T09:37:56.348Z,29.72
2017-07-19T09:38:56.333Z,29.84
2017-07-19T09:39:56.349Z,29.87
2017-07-19T09:40:56.392Z,29.86
2017-07-19T09:41:56.364Z,30.01
2017-07-19T09:42:56.389Z,29.98
2017-07-19T09:43:56.476Z,30.03
2017-07-19T09:44:56.479Z,29.95
2017-07-19T09:45:56.514Z,29.91
2017-07-19T09:46:56.480Z,29.65
2017-07-19T09:47:56.516Z,29.68
2017-07-19T09:48:56.452Z,29.70
2017-07-19T09:49:56.457Z,29.75
2017-07-19T09:50:56.447Z,29.83
2017-07-19T09:51:56.479Z,29.81
2017-07-19T09:52:56.520Z,29.81
2017-07-19T09:53:56.530Z,29.81
2017-07-19T09:54:56.504Z,29.46
2017-07-19T09:55:56.488Z,29.44
2017-07-19T09:56:56.471Z,29.47
2017-07-19T09:57:56.528Z,29.43
2017-07-19T09:58:56.496Z,29.62
2017-07-19T09:59:56.469Z,29.86
2017-07-19T10:00:56.568Z,30.03
2017-07-19T10:01:56.473Z,30.17
2017-07-19T10:02:56.504Z,30.27
2017-07-19T10:03:56.550Z,30.20
2017-07-19T10:04:56.535Z,30.27
2017-07-19T10:05:56.476Z,30.49
2017-07-19T10:06:56.572Z,30.49
2017-07-19T10:07:56.535Z,30.45
2017-07-19T10:08:56.476Z,30.61
2017-07-19T10:09:56.542Z,30.78
2017-07-19T10:10:56.562Z,30.94
2017-07-19T10:11:56.529Z,30.87
2017-07-19T10:12:56.567Z,30.86
2017-07-19T10:13:56.476Z,30.83
2017-07-19T10:14:56.499Z,30.83
2017-07-19T10:15:56.532Z,30.86
2017-07-19T10:16:56.509Z,30.79
2017-07-19T10:17:56.542Z,30.84
2017-07-19T10:18:56.493Z,30.91
2017-07-19T10:19:56.550Z,30.82
2017-07-19T10:20:56.515Z,30.97
2017-07-19T10:21:56.534Z,30.86
2017-07-19T10:22:56.575Z,31.02
2017-07-19T10:23:56.575Z,31.09
2017-07-19T10:24:56.576Z,31.24
2017-07-19T10:25:56.557Z,30.95
2017-07-19T10:26:56.540Z,30.93
2017-07-19T10:27:56.512Z,30.95
2017-07-19T10:28:56.486Z,31.12
2017-07-19T10:29:56.512Z,31.16
2017-07-19T10:30:56.546Z,31.06
2017-07-19T10:31:56.488Z,31.22
2017-07-19T10:32:56.518Z,31.37
2017-07-19T10:33:56.573Z,31.51
2017-07-19T10:34:56.576Z,31.70
2017-07-19T10:35:56.558Z,31.70
2017-07-19T10:36:56.582Z,31.91
2017-07-19T10:37:56.547Z,32.09
2017-07-19T10:38:56.493Z,32.26
2017-07-19T10:39:56.521Z,32.30
2017-07-19T10:40:56.493Z,32.47
2017-07-19T10:41:56.496Z,32.58
2017-07-19T10:42:56.582Z,32.69
2017-07-19T10:43:56.489Z,32.58
2017-07-19T10:44:56.564Z,32.51
2017-07-19T10:45:56.582Z,32.48
2017-07-19T10:46:56.548Z,32.43
2017-07-19T10:47:56.532Z,32.27
2017-07-19T10:48:56.531Z,32.07
2017-07-19T10:49:56.583Z,31.97
2017-07-19T10:50:56.588Z,31.81
2017-07-19T10:51:56.554Z,31.70
2017-07-19T10:52:56.531Z,31.68
2017-07-19T10:53:56.558Z,31.56
2017-07-19T10:54:56.589Z,31.45
2017-07-19T10:55:56.377Z,31.55
2017-07-19T10:56:56.438Z,31.44
2017-07-19T10:57:56.401Z,31.38
2017-07-19T10:58:56.482Z,31.48
2017-07-19T10:59:56.407Z,31.37
2017-07-19T11:00:56.501Z,31.49
2017-07-19T11:01:56.446Z,31.52
2017-07-19T11:02:56.387Z,31.60
2017-07-19T11:03:56.431Z,31.70
2017-07-19T11:04:56.440Z,31.52
2017-07-19T11:05:56.441Z,31.57
2017-07-19T11:06:56.392Z,31.62
2017-07-19T11:07:56.443Z,31.67
2017-07-19T11:08:56.405Z,31.77
2017-07-19T11:09:56.440Z,32.05
2017-07-19T11:10:56.449Z,32.14
2017-07-19T11:11:56.400Z,32.04
2017-07-19T11:12:56.454Z,32.05
2017-07-19T11:13:56.385Z,31.96
2017-07-19T11:14:56.504Z,31.63
2017-07-19T11:15:56.530Z,31.42
2017-07-19T11:16:56.533Z,31.27
2017-07-19T11:17:56.534Z,30.97
2017-07-19T11:18:56.500Z,30.98
2017-07-19T11:19:56.537Z,30.94
2017-07-19T11:20:56.565Z,30.93
2017-07-19T11:21:56.572Z,31.11
2017-07-19T11:22:56.537Z,31.24
2017-07-19T11:23:56.573Z,31.24
2017-07-19T11:24:56.549Z,31.49
2017-07-19T11:25:56.546Z,31.64
2017-07-19T11:26:56.548Z,31.77
2017-07-19T11:27:56.594Z,32.01
2017-07-19T11:28:56.580Z,32.07
2017-07-19T11:29:56.595Z,32.11
2017-07-19T11:30:56.591Z,32.22
2017-07-19T11:31:56.590Z,32.36
2017-07-19T11:32:56.614Z,32.29
2017-07-19T11:33:56.581Z,32.16
2017-07-19T11:34:56.554Z,32.15
2017-07-19T11:35:56.586Z,32.32
2017-07-19T11:36:56.615Z,32.59
2017-07-19T11:37:56.585Z,32.65
2017-07-19T11:38:56.613Z,32.88
2017-07-19T11:39:56.555Z,32.94
2017-07-19T11:40:56.537Z,33.06
2017-07-19T11:41:56.592Z,33.03
2017-07-19T11:42:56.599Z,33.00
2017-07-19T11:43:56.551Z,33.11
2017-07-19T11:44:56.532Z,32.91
2017-07-19T11:45:56.528Z,32.89
2017-07-19T11:46:56.560Z,32.88
2017-07-19T11:47:56.610Z,32.98
2017-07-19T11:48:56.531Z,32.65
2017-07-19T11:49:56.538Z,32.48
2017-07-19T11:50:56.598Z,32.34
2017-07-19T11:51:56.596Z,32.04
2017-07-19T11:52:56.556Z,31.89
2017-07-19T11:53:56.556Z,32.01
2017-07-19T11:54:56.540Z,32.15
2017-07-19T11:55:56.538Z,32.23
2017-07-19T11:56:56.611Z,32.04
2017-07-19T11:57:56.629Z,31.94
2017-07-19T11:58:56.536Z,31.80
2017-07-19T11:59:56.608Z,31.88
2017-07-19T12:00:56.539Z,31.93
2017-07-19T12:01:56.572Z,32.04
2017-07-19T12:02:56.564Z,32.16
2017-07-19T12:03:56.605Z,32.36
2017-07-19T12:04:56.562Z,32.58
2017-07-19T12:05:56.565Z,32.67
2017-07-19T12:06:56.513Z,32.69
2017-07-19T12:07:56.540Z,32.80
2017-07-19T12:08:56.542Z,32.80
2017-07-19T12:09:56.560Z,32.99
2017-07-19T12:10:56.603Z,32.85
2017-07-19T12:11:56.613Z,32.99
2017-07-19T12:12:56.603Z,33.10
2017-07-19T12:13:56.549Z,33.11
2017-07-19T12:14:56.617Z,33.31
2017-07-19T12:15:56.546Z,33.28
2017-07-19T12:16:56.572Z,33.06
2017-07-19T12:17:56.601Z,32.62
2017-07-19T12:18:56.572Z,32.63
2017-07-19T12:19:56.636Z,32.49
2017-07-19T12:20:56.584Z,32.41
2017-07-19T12:21:56.585Z,32.47
2017-07-19T12:22:56.582Z,32.29
2017-07-19T12:23:56.553Z,32.23
2017-07-19T12:24:56.537Z,32.32
2017-07-19T12:25:56.544Z,32.14
2017-07-19T12:26:56.566Z,32.07
2017-07-19T12:27:56.602Z,31.96
2017-07-19T12:28:56.541Z,31.78
2017-07-19T12:29:56.537Z,31.74
2017-07-19T12:30:56.608Z,31.86
2017-07-19T12:31:56.607Z,31.97
2017-07-19T12:32:56.603Z,31.94
2017-07-19T12:33:56.545Z,32.03
2017-07-19T12:34:56.576Z,32.09
2017-07-19T12:35:56.552Z,32.05
2017-07-19T12:36:56.524Z,32.14
2017-07-19T12:37:56.510Z,32.03
2017-07-19T12:38:56.577Z,32.12
2017-07-19T12:39:56.577Z,32.26
2017-07-19T12:40:56.513Z,32.48
2017-07-19T12:41:56.596Z,32.74
2017-07-19T12:42:56.524Z,33.00
2017-07-19T12:43:56.567Z,33.13
2017-07-19T12:44:56.557Z,33.11
2017-07-19T12:45:56.654Z,33.32
2017-07-19T12:46:56.649Z,33.50
2017-07-19T12:47:56.655Z,33.22
2017-07-19T12:48:56.590Z,33.02
2017-07-19T12:49:56.593Z,33.17
2017-07-19T12:50:56.568Z,33.20
2017-07-19T12:51:56.651Z,33.28
2017-07-19T12:52:56.562Z,33.24
2017-07-19T12:53:56.585Z,33.44
2017-07-19T12:54:56.657Z,33.51
2017-07-19T12:55:56.599Z,33.51